sensor_id;sensor_type;location;lat;lon;timestamp;P1;durP1;ratioP1;P2;durP2;ratioP2
51957;SDS011;41120;51.820;20.804;2022-11-03T00:01:11;20.93;;;11.17;;
51957;SDS011;41120;51.820;20.804;2022-11-03T00:15:34;29.57;;;10.17;;
51957;SDS011;41120;51.820;20.804;2022-11-03T00:18:08;27.20;;;10.47;;
51957;SDS011;41120;51.820;20.804;2022-11-03T00:20:34;21.57;;;10.47;;
51957;SDS011;41120;51.820;20.804;2022-11-03T00:28:39;24.17;;;10.97;;
51957;SDS011;41120;51.820;20.804;2022-11-03T00:34:06;28.00;;;11.23;;
51957;SDS011;41120;51.820;20.804;2022-11-03T00:45:08;26.13;;;12.87;;
51957;SDS011;41120;51.820;20.804;2022-11-03T01:05:18;34.83;;;14.50;;
51957;SDS011;41120;51.820;20.804;2022-11-03T01:08:14;29.52;;;14.25;;
51957;SDS011;41120;51.820;20.804;2022-11-03T01:16:41;40.28;;;15.50;;
51957;SDS011;41120;51.820;20.804;2022-11-03T01:24:58;38.78;;;15.25;;
51957;SDS011;41120;51.820;20.804;2022-11-03T01:27:37;37.03;;;15.23;;
51957;SDS011;41120;51.820;20.804;2022-11-03T01:30:10;33.25;;;15.80;;
51957;SDS011;41120;51.820;20.804;2022-11-03T01:38:32;41.70;;;15.48;;
51957;SDS011;41120;51.820;20.804;2022-11-03T01:41:15;36.97;;;15.25;;
51957;SDS011;41120;51.820;20.804;2022-11-03T01:55:41;31.13;;;14.98;;
51957;SDS011;41120;51.820;20.804;2022-11-03T01:58:10;32.33;;;15.15;;
51957;SDS011;41120;51.820;20.804;2022-11-03T02:04:20;28.80;;;13.35;;
51957;SDS011;41120;51.820;20.804;2022-11-03T02:12:41;31.52;;;13.30;;
51957;SDS011;41120;51.820;20.804;2022-11-03T02:15:14;29.55;;;13.23;;
51957;SDS011;41120;51.820;20.804;2022-11-03T02:29:37;30.27;;;12.38;;
51957;SDS011;41120;51.820;20.804;2022-11-03T02:50:42;25.60;;;11.80;;
51957;SDS011;41120;51.820;20.804;2022-11-03T03:02:34;26.75;;;11.50;;
51957;SDS011;41120;51.820;20.804;2022-11-03T03:08:16;26.05;;;11.25;;
51957;SDS011;41120;51.820;20.804;2022-11-03T03:10:47;25.48;;;11.38;;
51957;SDS011;41120;51.820;20.804;2022-11-03T03:13:16;24.92;;;12.05;;
51957;SDS011;41120;51.820;20.804;2022-11-03T03:19:11;19.67;;;10.23;;
51957;SDS011;41120;51.820;20.804;2022-11-03T03:30:56;20.95;;;10.02;;
51957;SDS011;41120;51.820;20.804;2022-11-03T03:33:32;22.95;;;10.00;;
51957;SDS011;41120;51.820;20.804;2022-11-03T03:38:57;25.45;;;10.20;;
51957;SDS011;41120;51.820;20.804;2022-11-03T03:41:30;20.98;;;10.27;;
51957;SDS011;41120;51.820;20.804;2022-11-03T03:44:03;23.83;;;11.73;;
51957;SDS011;41120;51.820;20.804;2022-11-03T03:46:45;23.33;;;11.35;;
51957;SDS011;41120;51.820;20.804;2022-11-03T03:49:16;23.65;;;11.70;;
51957;SDS011;41120;51.820;20.804;2022-11-03T03:51:49;21.80;;;10.95;;
51957;SDS011;41120;51.820;20.804;2022-11-03T03:57:16;20.38;;;11.15;;
51957;SDS011;41120;51.820;20.804;2022-11-03T04:05:48;36.92;;;11.52;;
51957;SDS011;41120;51.820;20.804;2022-11-03T04:08:17;21.80;;;10.45;;
51957;SDS011;41120;51.820;20.804;2022-11-03T04:10:45;22.15;;;11.35;;
51957;SDS011;41120;51.820;20.804;2022-11-03T04:19:45;23.23;;;11.35;;
51957;SDS011;41120;51.820;20.804;2022-11-03T04:22:45;24.40;;;10.82;;
51957;SDS011;41120;51.820;20.804;2022-11-03T04:25:17;22.33;;;11.63;;
51957;SDS011;41120;51.820;20.804;2022-11-03T04:30:19;26.02;;;12.38;;
51957;SDS011;41120;51.820;20.804;2022-11-03T04:47:47;34.35;;;15.77;;
51957;SDS011;41120;51.820;20.804;2022-11-03T04:55:47;128.60;;;70.93;;
51957;SDS011;41120;51.820;20.804;2022-11-03T05:04:03;157.20;;;71.95;;
51957;SDS011;41120;51.820;20.804;2022-11-03T05:06:39;107.60;;;47.25;;
51957;SDS011;41120;51.820;20.804;2022-11-03T05:09:20;56.40;;;25.80;;
51957;SDS011;41120;51.820;20.804;2022-11-03T05:12:03;42.70;;;20.15;;
51957;SDS011;41120;51.820;20.804;2022-11-03T05:29:49;33.80;;;15.32;;
51957;SDS011;41120;51.820;20.804;2022-11-03T05:32:22;46.28;;;24.48;;
51957;SDS011;41120;51.820;20.804;2022-11-03T05:34:53;44.38;;;21.02;;
51957;SDS011;41120;51.820;20.804;2022-11-03T05:43:18;70.65;;;27.90;;
51957;SDS011;41120;51.820;20.804;2022-11-03T05:57:54;59.90;;;30.15;;
51957;SDS011;41120;51.820;20.804;2022-11-03T06:00:40;167.13;;;62.55;;
51957;SDS011;41120;51.820;20.804;2022-11-03T06:03:09;77.82;;;33.85;;
51957;SDS011;41120;51.820;20.804;2022-11-03T06:05:47;74.68;;;32.47;;
51957;SDS011;41120;51.820;20.804;2022-11-03T06:08:17;40.47;;;19.73;;
51957;SDS011;41120;51.820;20.804;2022-11-03T06:10:54;48.97;;;22.23;;
51957;SDS011;41120;51.820;20.804;2022-11-03T06:24:20;69.75;;;34.00;;
51957;SDS011;41120;51.820;20.804;2022-11-03T06:38:49;40.13;;;18.50;;
51957;SDS011;41120;51.820;20.804;2022-11-03T06:41:24;60.33;;;23.83;;
51957;SDS011;41120;51.820;20.804;2022-11-03T06:43:52;30.23;;;17.05;;
51957;SDS011;41120;51.820;20.804;2022-11-03T06:46:22;53.92;;;20.10;;
51957;SDS011;41120;51.820;20.804;2022-11-03T06:48:53;40.83;;;18.08;;
51957;SDS011;41120;51.820;20.804;2022-11-03T06:51:25;70.78;;;26.67;;
51957;SDS011;41120;51.820;20.804;2022-11-03T06:53:54;30.73;;;16.63;;
51957;SDS011;41120;51.820;20.804;2022-11-03T06:56:24;27.63;;;14.98;;
51957;SDS011;41120;51.820;20.804;2022-11-03T06:58:53;30.15;;;15.73;;
51957;SDS011;41120;51.820;20.804;2022-11-03T07:01:24;24.00;;;13.00;;
51957;SDS011;41120;51.820;20.804;2022-11-03T07:03:56;28.75;;;15.35;;
51957;SDS011;41120;51.820;20.804;2022-11-03T07:06:30;28.95;;;16.48;;
51957;SDS011;41120;51.820;20.804;2022-11-03T07:09:12;37.97;;;17.50;;
51957;SDS011;41120;51.820;20.804;2022-11-03T07:11:57;23.90;;;13.48;;
51957;SDS011;41120;51.820;20.804;2022-11-03T07:19:50;25.57;;;11.83;;
51957;SDS011;41120;51.820;20.804;2022-11-03T07:30:49;23.93;;;12.57;;
51957;SDS011;41120;51.820;20.804;2022-11-03T07:33:22;20.83;;;11.10;;
51957;SDS011;41120;51.820;20.804;2022-11-03T07:35:52;28.10;;;13.03;;
51957;SDS011;41120;51.820;20.804;2022-11-03T07:38:23;20.63;;;11.50;;
51957;SDS011;41120;51.820;20.804;2022-11-03T07:40:52;20.43;;;11.50;;
51957;SDS011;41120;51.820;20.804;2022-11-03T07:51:55;25.40;;;12.23;;
51957;SDS011;41120;51.820;20.804;2022-11-03T07:54:24;22.07;;;12.20;;
51957;SDS011;41120;51.820;20.804;2022-11-03T07:56:55;26.23;;;12.07;;
51957;SDS011;41120;51.820;20.804;2022-11-03T07:59:40;28.43;;;13.77;;
51957;SDS011;41120;51.820;20.804;2022-11-03T08:02:28;29.73;;;13.30;;
51957;SDS011;41120;51.820;20.804;2022-11-03T08:04:57;19.07;;;10.00;;
51957;SDS011;41120;51.820;20.804;2022-11-03T08:07:24;25.77;;;10.47;;
51957;SDS011;41120;51.820;20.804;2022-11-03T08:10:01;20.10;;;10.03;;
51957;SDS011;41120;51.820;20.804;2022-11-03T08:12:28;19.60;;;11.43;;
51957;SDS011;41120;51.820;20.804;2022-11-03T08:17:48;15.37;;;8.33;;
51957;SDS011;41120;51.820;20.804;2022-11-03T08:20:22;22.63;;;11.60;;
51957;SDS011;41120;51.820;20.804;2022-11-03T08:22:54;22.63;;;10.73;;
51957;SDS011;41120;51.820;20.804;2022-11-03T08:27:57;17.80;;;10.77;;
51957;SDS011;41120;51.820;20.804;2022-11-03T08:30:23;23.00;;;9.70;;
51957;SDS011;41120;51.820;20.804;2022-11-03T08:32:49;24.07;;;12.00;;
51957;SDS011;41120;51.820;20.804;2022-11-03T08:35:22;17.63;;;10.13;;
51957;SDS011;41120;51.820;20.804;2022-11-03T08:37:53;18.97;;;10.37;;
51957;SDS011;41120;51.820;20.804;2022-11-03T08:40:18;21.50;;;11.17;;
51957;SDS011;41120;51.820;20.804;2022-11-03T08:46:10;16.90;;;9.93;;
51957;SDS011;41120;51.820;20.804;2022-11-03T08:51:23;23.03;;;9.50;;
51957;SDS011;41120;51.820;20.804;2022-11-03T08:56:51;17.27;;;8.00;;
51957;SDS011;41120;51.820;20.804;2022-11-03T08:59:22;15.17;;;7.50;;
51957;SDS011;41120;51.820;20.804;2022-11-03T09:01:55;15.75;;;8.30;;
51957;SDS011;41120;51.820;20.804;2022-11-03T09:04:23;23.13;;;10.20;;
51957;SDS011;41120;51.820;20.804;2022-11-03T09:06:49;16.97;;;8.17;;
51957;SDS011;41120;51.820;20.804;2022-11-03T09:09:24;15.17;;;6.63;;
51957;SDS011;41120;51.820;20.804;2022-11-03T09:11:59;24.33;;;8.37;;
51957;SDS011;41120;51.820;20.804;2022-11-03T09:20:56;14.30;;;5.53;;
51957;SDS011;41120;51.820;20.804;2022-11-03T09:23:24;10.53;;;5.13;;
51957;SDS011;41120;51.820;20.804;2022-11-03T09:25:55;13.33;;;5.50;;
51957;SDS011;41120;51.820;20.804;2022-11-03T09:28:23;13.27;;;5.13;;
51957;SDS011;41120;51.820;20.804;2022-11-03T09:33:37;18.83;;;6.07;;
51957;SDS011;41120;51.820;20.804;2022-11-03T09:36:04;10.90;;;5.60;;
51957;SDS011;41120;51.820;20.804;2022-11-03T09:41:24;10.57;;;5.17;;
51957;SDS011;41120;51.820;20.804;2022-11-03T09:43:56;15.87;;;5.10;;
51957;SDS011;41120;51.820;20.804;2022-11-03T09:46:24;8.27;;;3.90;;
51957;SDS011;41120;51.820;20.804;2022-11-03T09:54:44;14.80;;;5.50;;
51957;SDS011;41120;51.820;20.804;2022-11-03T09:57:26;19.80;;;7.47;;
51957;SDS011;41120;51.820;20.804;2022-11-03T09:59:56;13.23;;;5.33;;
51957;SDS011;41120;51.820;20.804;2022-11-03T10:02:36;17.57;;;6.07;;
51957;SDS011;41120;51.820;20.804;2022-11-03T10:05:18;18.53;;;4.00;;
51957;SDS011;41120;51.820;20.804;2022-11-03T10:07:50;8.47;;;3.03;;
51957;SDS011;41120;51.820;20.804;2022-11-03T10:18:25;7.70;;;2.57;;
51957;SDS011;41120;51.820;20.804;2022-11-03T10:24:04;10.70;;;2.93;;
51957;SDS011;41120;51.820;20.804;2022-11-03T10:29:23;9.37;;;3.30;;
51957;SDS011;41120;51.820;20.804;2022-11-03T10:31:54;8.13;;;3.47;;
51957;SDS011;41120;51.820;20.804;2022-11-03T10:46:25;8.73;;;2.37;;
51957;SDS011;41120;51.820;20.804;2022-11-03T10:51:46;7.43;;;3.00;;
51957;SDS011;41120;51.820;20.804;2022-11-03T10:54:17;9.07;;;3.67;;
51957;SDS011;41120;51.820;20.804;2022-11-03T10:59:35;6.70;;;3.03;;
51957;SDS011;41120;51.820;20.804;2022-11-03T11:07:37;8.43;;;3.00;;
51957;SDS011;41120;51.820;20.804;2022-11-03T11:10:06;10.00;;;2.60;;
51957;SDS011;41120;51.820;20.804;2022-11-03T11:33:16;6.07;;;2.30;;
51957;SDS011;41120;51.820;20.804;2022-11-03T11:41:14;10.17;;;2.77;;
51957;SDS011;41120;51.820;20.804;2022-11-03T11:46:50;7.67;;;2.87;;
51957;SDS011;41120;51.820;20.804;2022-11-03T11:52:09;9.40;;;2.43;;
51957;SDS011;41120;51.820;20.804;2022-11-03T11:57:29;9.97;;;3.00;;
51957;SDS011;41120;51.820;20.804;2022-11-03T12:00:03;10.93;;;3.00;;
51957;SDS011;41120;51.820;20.804;2022-11-03T12:02:32;11.27;;;5.32;;
51957;SDS011;41120;51.820;20.804;2022-11-03T12:04:59;8.57;;;3.27;;
51957;SDS011;41120;51.820;20.804;2022-11-03T12:07:45;6.43;;;2.80;;
51957;SDS011;41120;51.820;20.804;2022-11-03T12:13:43;6.70;;;2.70;;
51957;SDS011;41120;51.820;20.804;2022-11-03T12:28:39;8.60;;;2.50;;
51957;SDS011;41120;51.820;20.804;2022-11-03T12:31:14;6.67;;;2.50;;
51957;SDS011;41120;51.820;20.804;2022-11-03T12:44:28;8.03;;;1.90;;
51957;SDS011;41120;51.820;20.804;2022-11-03T12:47:00;5.27;;;1.70;;
51957;SDS011;41120;51.820;20.804;2022-11-03T12:49:26;4.03;;;1.90;;
51957;SDS011;41120;51.820;20.804;2022-11-03T13:00:20;4.87;;;1.57;;
51957;SDS011;41120;51.820;20.804;2022-11-03T13:02:48;6.03;;;1.70;;
51957;SDS011;41120;51.820;20.804;2022-11-03T13:08:01;4.00;;;1.90;;
51957;SDS011;41120;51.820;20.804;2022-11-03T13:13:07;6.73;;;1.73;;
51957;SDS011;41120;51.820;20.804;2022-11-03T13:15:44;5.90;;;1.90;;
51957;SDS011;41120;51.820;20.804;2022-11-03T13:18:25;9.00;;;2.80;;
51957;SDS011;41120;51.820;20.804;2022-11-03T13:20:55;6.43;;;2.63;;
51957;SDS011;41120;51.820;20.804;2022-11-03T13:23:28;5.03;;;1.90;;
51957;SDS011;41120;51.820;20.804;2022-11-03T13:28:26;5.47;;;2.25;;
51957;SDS011;41120;51.820;20.804;2022-11-03T13:31:09;10.33;;;2.10;;
51957;SDS011;41120;51.820;20.804;2022-11-03T13:33:45;6.73;;;2.30;;
51957;SDS011;41120;51.820;20.804;2022-11-03T13:38:54;5.70;;;1.87;;
51957;SDS011;41120;51.820;20.804;2022-11-03T13:41:20;8.40;;;2.20;;
51957;SDS011;41120;51.820;20.804;2022-11-03T13:43:46;5.37;;;2.17;;
51957;SDS011;41120;51.820;20.804;2022-11-03T13:46:12;6.20;;;2.40;;
51957;SDS011;41120;51.820;20.804;2022-11-03T13:48:38;5.33;;;2.17;;
51957;SDS011;41120;51.820;20.804;2022-11-03T13:51:04;14.50;;;3.10;;
51957;SDS011;41120;51.820;20.804;2022-11-03T13:53:30;5.93;;;2.27;;
51957;SDS011;41120;51.820;20.804;2022-11-03T13:55:56;8.33;;;2.10;;
51957;SDS011;41120;51.820;20.804;2022-11-03T13:58:22;4.10;;;2.20;;
51957;SDS011;41120;51.820;20.804;2022-11-03T14:00:48;8.17;;;2.00;;
51957;SDS011;41120;51.820;20.804;2022-11-03T14:03:14;11.73;;;2.90;;
51957;SDS011;41120;51.820;20.804;2022-11-03T14:05:42;9.07;;;2.33;;
51957;SDS011;41120;51.820;20.804;2022-11-03T14:08:08;5.00;;;1.93;;
51957;SDS011;41120;51.820;20.804;2022-11-03T14:10:43;7.70;;;2.47;;
51957;SDS011;41120;51.820;20.804;2022-11-03T14:13:16;4.43;;;2.57;;
51957;SDS011;41120;51.820;20.804;2022-11-03T14:15:47;14.65;;;2.75;;
51957;SDS011;41120;51.820;20.804;2022-11-03T14:20:49;4.60;;;2.30;;
51957;SDS011;41120;51.820;20.804;2022-11-03T14:23:17;5.73;;;2.60;;
51957;SDS011;41120;51.820;20.804;2022-11-03T14:28:22;7.23;;;2.93;;
51957;SDS011;41120;51.820;20.804;2022-11-03T14:31:04;8.87;;;3.20;;
51957;SDS011;41120;51.820;20.804;2022-11-03T14:33:31;9.60;;;3.73;;
51957;SDS011;41120;51.820;20.804;2022-11-03T14:35:59;8.83;;;3.83;;
51957;SDS011;41120;51.820;20.804;2022-11-03T14:38:31;8.80;;;4.20;;
51957;SDS011;41120;51.820;20.804;2022-11-03T14:41:03;14.40;;;6.60;;
51957;SDS011;41120;51.820;20.804;2022-11-03T14:44:04;16.97;;;10.00;;
51957;SDS011;41120;51.820;20.804;2022-11-03T14:46:31;15.88;;;6.15;;
51957;SDS011;41120;51.820;20.804;2022-11-03T14:48:59;17.20;;;5.50;;
51957;SDS011;41120;51.820;20.804;2022-11-03T14:51:31;17.90;;;5.80;;
51957;SDS011;41120;51.820;20.804;2022-11-03T14:53:57;19.63;;;6.57;;
51957;SDS011;41120;51.820;20.804;2022-11-03T14:56:23;21.63;;;6.87;;
51957;SDS011;41120;51.820;20.804;2022-11-03T14:58:49;18.70;;;7.30;;
51957;SDS011;41120;51.820;20.804;2022-11-03T15:01:16;17.83;;;6.93;;
51957;SDS011;41120;51.820;20.804;2022-11-03T15:03:42;16.50;;;6.73;;
51957;SDS011;41120;51.820;20.804;2022-11-03T15:06:09;19.80;;;6.50;;
51957;SDS011;41120;51.820;20.804;2022-11-03T15:11:06;18.03;;;6.00;;
51957;SDS011;41120;51.820;20.804;2022-11-03T15:13:36;16.40;;;5.70;;
51957;SDS011;41120;51.820;20.804;2022-11-03T15:16:19;15.57;;;5.43;;
51957;SDS011;41120;51.820;20.804;2022-11-03T15:18:54;13.90;;;5.30;;
51957;SDS011;41120;51.820;20.804;2022-11-03T15:21:28;22.67;;;9.07;;
51957;SDS011;41120;51.820;20.804;2022-11-03T15:27:09;25.90;;;10.80;;
51957;SDS011;41120;51.820;20.804;2022-11-03T15:29:35;28.07;;;9.90;;
51957;SDS011;41120;51.820;20.804;2022-11-03T15:32:07;29.80;;;10.63;;
51957;SDS011;41120;51.820;20.804;2022-11-03T15:34:35;40.47;;;14.30;;
51957;SDS011;41120;51.820;20.804;2022-11-03T15:37:07;78.67;;;30.17;;
51957;SDS011;41120;51.820;20.804;2022-11-03T15:39:35;37.55;;;13.77;;
51957;SDS011;41120;51.820;20.804;2022-11-03T15:42:02;98.73;;;35.63;;
51957;SDS011;41120;51.820;20.804;2022-11-03T15:44:34;42.90;;;18.67;;
51957;SDS011;41120;51.820;20.804;2022-11-03T15:47:00;77.17;;;32.03;;
51957;SDS011;41120;51.820;20.804;2022-11-03T15:49:32;56.50;;;23.60;;
51957;SDS011;41120;51.820;20.804;2022-11-03T15:54:36;32.00;;;13.37;;
51957;SDS011;41120;51.820;20.804;2022-11-03T16:00:04;38.73;;;17.67;;
51957;SDS011;41120;51.820;20.804;2022-11-03T16:02:45;35.53;;;14.83;;
51957;SDS011;41120;51.820;20.804;2022-11-03T16:05:33;26.63;;;13.23;;
51957;SDS011;41120;51.820;20.804;2022-11-03T16:08:06;25.73;;;10.73;;
51957;SDS011;41120;51.820;20.804;2022-11-03T16:13:24;15.70;;;7.67;;
51957;SDS011;41120;51.820;20.804;2022-11-03T16:18:32;24.10;;;10.03;;
51957;SDS011;41120;51.820;20.804;2022-11-03T16:21:05;21.07;;;8.97;;
51957;SDS011;41120;51.820;20.804;2022-11-03T16:23:31;16.35;;;7.72;;
51957;SDS011;41120;51.820;20.804;2022-11-03T16:25:57;13.93;;;6.97;;
51957;SDS011;41120;51.820;20.804;2022-11-03T16:28:23;16.63;;;7.97;;
51957;SDS011;41120;51.820;20.804;2022-11-03T16:30:50;18.90;;;9.47;;
51957;SDS011;41120;51.820;20.804;2022-11-03T16:33:16;24.40;;;10.87;;
51957;SDS011;41120;51.820;20.804;2022-11-03T16:35:43;23.50;;;10.60;;
51957;SDS011;41120;51.820;20.804;2022-11-03T16:38:09;21.50;;;10.53;;
51957;SDS011;41120;51.820;20.804;2022-11-03T16:43:21;26.07;;;13.43;;
51957;SDS011;41120;51.820;20.804;2022-11-03T16:45:50;32.40;;;15.57;;
51957;SDS011;41120;51.820;20.804;2022-11-03T16:50:50;31.83;;;15.63;;
51957;SDS011;41120;51.820;20.804;2022-11-03T16:53:23;34.67;;;15.23;;
51957;SDS011;41120;51.820;20.804;2022-11-03T16:55:51;30.73;;;14.67;;
51957;SDS011;41120;51.820;20.804;2022-11-03T17:01:29;31.15;;;15.02;;
51957;SDS011;41120;51.820;20.804;2022-11-03T17:04:02;29.38;;;14.23;;
51957;SDS011;41120;51.820;20.804;2022-11-03T17:06:28;29.23;;;14.48;;
51957;SDS011;41120;51.820;20.804;2022-11-03T17:11:27;28.70;;;13.18;;
51957;SDS011;41120;51.820;20.804;2022-11-03T17:14:03;29.98;;;13.43;;
51957;SDS011;41120;51.820;20.804;2022-11-03T17:16:37;30.30;;;13.85;;
51957;SDS011;41120;51.820;20.804;2022-11-03T17:19:03;30.08;;;13.90;;
51957;SDS011;41120;51.820;20.804;2022-11-03T17:21:35;33.92;;;15.18;;
51957;SDS011;41120;51.820;20.804;2022-11-03T17:24:00;29.15;;;14.90;;
51957;SDS011;41120;51.820;20.804;2022-11-03T17:26:37;32.03;;;15.32;;
51957;SDS011;41120;51.820;20.804;2022-11-03T17:29:14;31.23;;;16.38;;
51957;SDS011;41120;51.820;20.804;2022-11-03T17:31:46;34.53;;;16.73;;
51957;SDS011;41120;51.820;20.804;2022-11-03T17:34:18;32.30;;;17.23;;
51957;SDS011;41120;51.820;20.804;2022-11-03T17:36:54;34.65;;;18.23;;
51957;SDS011;41120;51.820;20.804;2022-11-03T17:39:23;31.98;;;17.60;;
51957;SDS011;41120;51.820;20.804;2022-11-03T17:44:26;33.38;;;16.33;;
51957;SDS011;41120;51.820;20.804;2022-11-03T17:47:01;36.63;;;15.93;;
51957;SDS011;41120;51.820;20.804;2022-11-03T17:55:28;29.58;;;12.68;;
51957;SDS011;41120;51.820;20.804;2022-11-03T18:00:59;24.80;;;13.20;;
51957;SDS011;41120;51.820;20.804;2022-11-03T18:03:32;29.17;;;14.55;;
51957;SDS011;41120;51.820;20.804;2022-11-03T18:05:59;34.47;;;18.27;;
51957;SDS011;41120;51.820;20.804;2022-11-03T18:08:29;30.00;;;15.77;;
51957;SDS011;41120;51.820;20.804;2022-11-03T18:11:08;33.22;;;19.50;;
51957;SDS011;41120;51.820;20.804;2022-11-03T18:14:10;32.97;;;17.05;;
51957;SDS011;41120;51.820;20.804;2022-11-03T18:16:36;28.13;;;13.88;;
51957;SDS011;41120;51.820;20.804;2022-11-03T18:19:04;25.08;;;12.60;;
51957;SDS011;41120;51.820;20.804;2022-11-03T18:21:36;22.55;;;12.30;;
51957;SDS011;41120;51.820;20.804;2022-11-03T18:24:16;27.17;;;12.80;;
51957;SDS011;41120;51.820;20.804;2022-11-03T18:26:50;29.77;;;11.93;;
51957;SDS011;41120;51.820;20.804;2022-11-03T18:29:17;20.45;;;10.52;;
51957;SDS011;41120;51.820;20.804;2022-11-03T18:31:51;21.37;;;9.10;;
51957;SDS011;41120;51.820;20.804;2022-11-03T18:34:20;21.30;;;8.50;;
51957;SDS011;41120;51.820;20.804;2022-11-03T18:39:23;15.02;;;7.75;;
51957;SDS011;41120;51.820;20.804;2022-11-03T18:41:53;19.48;;;7.10;;
51957;SDS011;41120;51.820;20.804;2022-11-03T18:44:27;20.85;;;7.65;;
51957;SDS011;41120;51.820;20.804;2022-11-03T18:46:54;19.30;;;8.02;;
51957;SDS011;41120;51.820;20.804;2022-11-03T18:49:27;15.88;;;6.80;;
51957;SDS011;41120;51.820;20.804;2022-11-03T18:52:01;12.70;;;6.32;;
51957;SDS011;41120;51.820;20.804;2022-11-03T18:54:31;15.23;;;7.75;;
51957;SDS011;41120;51.820;20.804;2022-11-03T18:57:11;14.77;;;6.32;;
51957;SDS011;41120;51.820;20.804;2022-11-03T18:59:39;17.98;;;7.35;;
51957;SDS011;41120;51.820;20.804;2022-11-03T19:02:26;17.52;;;7.10;;
51957;SDS011;41120;51.820;20.804;2022-11-03T19:04:58;16.17;;;7.22;;
51957;SDS011;41120;51.820;20.804;2022-11-03T19:07:26;13.85;;;7.32;;
51957;SDS011;41120;51.820;20.804;2022-11-03T19:09:57;14.30;;;7.70;;
51957;SDS011;41120;51.820;20.804;2022-11-03T19:12:24;18.45;;;7.45;;
51957;SDS011;41120;51.820;20.804;2022-11-03T19:17:38;18.05;;;8.35;;
51957;SDS011;41120;51.820;20.804;2022-11-03T19:20:12;15.00;;;8.00;;
51957;SDS011;41120;51.820;20.804;2022-11-03T19:28:11;16.38;;;7.97;;
51957;SDS011;41120;51.820;20.804;2022-11-03T19:30:41;17.35;;;7.47;;
51957;SDS011;41120;51.820;20.804;2022-11-03T19:33:19;17.83;;;8.15;;
51957;SDS011;41120;51.820;20.804;2022-11-03T19:35:57;17.35;;;7.72;;
51957;SDS011;41120;51.820;20.804;2022-11-03T19:38:23;16.65;;;7.78;;
51957;SDS011;41120;51.820;20.804;2022-11-03T19:51:59;21.33;;;8.45;;
51957;SDS011;41120;51.820;20.804;2022-11-03T19:54:27;19.92;;;7.88;;
51957;SDS011;41120;51.820;20.804;2022-11-03T19:57:09;17.73;;;7.78;;
51957;SDS011;41120;51.820;20.804;2022-11-03T19:59:36;12.95;;;7.72;;
51957;SDS011;41120;51.820;20.804;2022-11-03T20:02:02;21.55;;;8.27;;
51957;SDS011;41120;51.820;20.804;2022-11-03T20:04:28;18.50;;;8.05;;
51957;SDS011;41120;51.820;20.804;2022-11-03T20:06:59;18.73;;;8.20;;
51957;SDS011;41120;51.820;20.804;2022-11-03T20:12:14;22.55;;;10.00;;
51957;SDS011;41120;51.820;20.804;2022-11-03T20:15:04;19.73;;;9.88;;
51957;SDS011;41120;51.820;20.804;2022-11-03T20:17:38;16.75;;;9.48;;
51957;SDS011;41120;51.820;20.804;2022-11-03T20:20:14;21.95;;;9.63;;
51957;SDS011;41120;51.820;20.804;2022-11-03T20:25:38;19.52;;;9.05;;
51957;SDS011;41120;51.820;20.804;2022-11-03T20:28:15;21.52;;;9.65;;
51957;SDS011;41120;51.820;20.804;2022-11-03T20:30:44;23.15;;;9.75;;
51957;SDS011;41120;51.820;20.804;2022-11-03T20:33:12;20.17;;;10.25;;
51957;SDS011;41120;51.820;20.804;2022-11-03T20:35:41;24.55;;;11.10;;
51957;SDS011;41120;51.820;20.804;2022-11-03T20:38:10;19.40;;;9.50;;
51957;SDS011;41120;51.820;20.804;2022-11-03T20:40:38;24.15;;;10.57;;
51957;SDS011;41120;51.820;20.804;2022-11-03T20:48:22;26.10;;;10.85;;
51957;SDS011;41120;51.820;20.804;2022-11-03T20:50:48;23.35;;;11.25;;
51957;SDS011;41120;51.820;20.804;2022-11-03T20:53:29;23.58;;;11.63;;
51957;SDS011;41120;51.820;20.804;2022-11-03T20:58:34;23.25;;;11.60;;
51957;SDS011;41120;51.820;20.804;2022-11-03T21:01:13;26.10;;;11.30;;
51957;SDS011;41120;51.820;20.804;2022-11-03T21:03:46;27.05;;;11.48;;
51957;SDS011;41120;51.820;20.804;2022-11-03T21:06:18;23.42;;;12.35;;
51957;SDS011;41120;51.820;20.804;2022-11-03T21:08:45;23.20;;;12.40;;
51957;SDS011;41120;51.820;20.804;2022-11-03T21:11:16;22.63;;;12.13;;
51957;SDS011;41120;51.820;20.804;2022-11-03T21:16:45;22.85;;;11.48;;
51957;SDS011;41120;51.820;20.804;2022-11-03T21:19:31;25.52;;;11.35;;
51957;SDS011;41120;51.820;20.804;2022-11-03T21:25:11;24.48;;;11.23;;
51957;SDS011;41120;51.820;20.804;2022-11-03T21:27:48;26.50;;;11.82;;
51957;SDS011;41120;51.820;20.804;2022-11-03T21:30:23;27.77;;;13.10;;
51957;SDS011;41120;51.820;20.804;2022-11-03T21:32:57;25.30;;;13.02;;
51957;SDS011;41120;51.820;20.804;2022-11-03T21:38:04;27.30;;;12.18;;
51957;SDS011;41120;51.820;20.804;2022-11-03T21:43:50;24.58;;;12.88;;
51957;SDS011;41120;51.820;20.804;2022-11-03T21:46:36;29.88;;;13.18;;
51957;SDS011;41120;51.820;20.804;2022-11-03T21:52:19;26.42;;;13.10;;
51957;SDS011;41120;51.820;20.804;2022-11-03T21:54:59;32.08;;;11.90;;
51957;SDS011;41120;51.820;20.804;2022-11-03T21:57:38;26.48;;;11.70;;
51957;SDS011;41120;51.820;20.804;2022-11-03T22:00:04;28.27;;;12.45;;
51957;SDS011;41120;51.820;20.804;2022-11-03T22:02:40;23.70;;;11.35;;
51957;SDS011;41120;51.820;20.804;2022-11-03T22:05:09;26.25;;;12.13;;
51957;SDS011;41120;51.820;20.804;2022-11-03T22:07:36;26.95;;;11.98;;
51957;SDS011;41120;51.820;20.804;2022-11-03T22:13:02;22.45;;;10.70;;
51957;SDS011;41120;51.820;20.804;2022-11-03T22:18:32;24.55;;;10.85;;
51957;SDS011;41120;51.820;20.804;2022-11-03T22:20:58;24.20;;;10.68;;
51957;SDS011;41120;51.820;20.804;2022-11-03T22:23:52;20.67;;;11.00;;
51957;SDS011;41120;51.820;20.804;2022-11-03T22:26:38;28.30;;;11.18;;
51957;SDS011;41120;51.820;20.804;2022-11-03T22:29:40;22.85;;;10.57;;
51957;SDS011;41120;51.820;20.804;2022-11-03T22:32:38;26.00;;;12.38;;
51957;SDS011;41120;51.820;20.804;2022-11-03T22:35:18;26.63;;;12.38;;
51957;SDS011;41120;51.820;20.804;2022-11-03T22:38:08;24.17;;;11.90;;
51957;SDS011;41120;51.820;20.804;2022-11-03T22:40:41;27.88;;;12.20;;
51957;SDS011;41120;51.820;20.804;2022-11-03T22:43:36;27.70;;;12.75;;
51957;SDS011;41120;51.820;20.804;2022-11-03T22:46:21;26.63;;;12.52;;
51957;SDS011;41120;51.820;20.804;2022-11-03T22:48:48;24.27;;;12.32;;
51957;SDS011;41120;51.820;20.804;2022-11-03T22:54:12;24.88;;;12.10;;
51957;SDS011;41120;51.820;20.804;2022-11-03T22:56:38;26.88;;;11.68;;
51957;SDS011;41120;51.820;20.804;2022-11-03T22:59:14;24.83;;;12.15;;
51957;SDS011;41120;51.820;20.804;2022-11-03T23:01:42;25.30;;;11.13;;
51957;SDS011;41120;51.820;20.804;2022-11-03T23:09:30;26.27;;;11.95;;
51957;SDS011;41120;51.820;20.804;2022-11-03T23:12:02;26.00;;;11.52;;
51957;SDS011;41120;51.820;20.804;2022-11-03T23:14:34;27.23;;;12.38;;
51957;SDS011;41120;51.820;20.804;2022-11-03T23:17:19;29.58;;;12.80;;
51957;SDS011;41120;51.820;20.804;2022-11-03T23:20:20;30.75;;;11.88;;
51957;SDS011;41120;51.820;20.804;2022-11-03T23:23:16;24.88;;;12.85;;
51957;SDS011;41120;51.820;20.804;2022-11-03T23:26:03;23.17;;;11.93;;
51957;SDS011;41120;51.820;20.804;2022-11-03T23:31:45;28.83;;;13.52;;
51957;SDS011;41120;51.820;20.804;2022-11-03T23:34:19;26.65;;;12.45;;